createdAt,value
2022-09-17T00:00:15.750Z,0.00
2022-09-17T00:01:41.262Z,0.10
2022-09-17T00:02:46.198Z,0.00
2022-09-17T00:03:53.788Z,0.00
2022-09-17T00:05:04.184Z,0.00
2022-09-17T00:06:07.901Z,0.10
2022-09-17T00:07:11.350Z,0.00
2022-09-17T00:08:15.251Z,0.00
2022-09-17T00:09:25.239Z,0.13
2022-09-17T00:10:27.868Z,0.00
2022-09-17T00:11:33.001Z,0.03
2022-09-17T00:12:35.539Z,0.00
2022-09-17T00:13:39.515Z,0.00
2022-09-17T00:14:49.235Z,0.00
2022-09-17T00:15:52.635Z,0.00
2022-09-17T00:17:01.666Z,0.10
2022-09-17T00:18:04.611Z,0.00
2022-09-17T00:19:10.213Z,0.00
2022-09-17T00:20:19.209Z,0.00
2022-09-17T00:21:29.216Z,0.00
2022-09-17T00:22:31.782Z,0.13
2022-09-17T00:23:35.255Z,0.20
2022-09-17T00:24:37.822Z,0.00
2022-09-17T00:25:41.577Z,0.20
2022-09-17T00:26:50.249Z,0.10
2022-09-17T00:27:54.790Z,0.10
2022-09-17T00:28:58.606Z,0.00
2022-09-17T00:30:02.280Z,0.00
2022-09-17T00:31:08.957Z,0.43
2022-09-17T00:32:20.203Z,0.50
2022-09-17T00:33:22.745Z,0.00
2022-09-17T00:34:26.221Z,0.00
2022-09-17T00:35:28.878Z,0.00
2022-09-17T00:36:39.230Z,0.00
2022-09-17T00:37:41.740Z,0.00
2022-09-17T00:38:45.375Z,0.00
2022-09-17T00:39:47.981Z,0.00
2022-09-17T00:40:51.448Z,0.00
2022-09-17T00:42:00.213Z,0.00
2022-09-17T00:43:03.937Z,0.00
2022-09-17T00:44:21.711Z,0.00
2022-09-17T00:45:25.753Z,0.00
2022-09-17T00:46:32.716Z,0.10
2022-09-17T00:47:46.279Z,0.00
2022-09-17T00:48:49.254Z,0.00
2022-09-17T00:49:54.531Z,0.00
2022-09-17T00:50:57.888Z,0.00
2022-09-17T00:52:03.874Z,0.00
2022-09-17T00:53:14.240Z,0.00
2022-09-17T00:54:17.770Z,0.00
2022-09-17T00:55:21.631Z,0.00
2022-09-17T00:56:27.268Z,0.00
2022-09-17T00:57:32.100Z,0.00
2022-09-17T00:58:43.236Z,0.00
2022-09-17T00:59:45.854Z,0.00
2022-09-17T01:01:09.253Z,0.00
2022-09-17T01:02:12.013Z,0.07
2022-09-17T01:03:17.183Z,0.00
2022-09-17T01:04:27.265Z,0.00
2022-09-17T01:05:33.619Z,0.00
2022-09-17T01:06:46.145Z,0.00
2022-09-17T01:07:59.519Z,0.00
2022-09-17T01:09:12.292Z,0.00
2022-09-17T01:10:29.277Z,0.00
2022-09-17T01:11:37.815Z,0.00
2022-09-17T01:12:57.789Z,0.00
2022-09-17T01:14:08.401Z,0.00
2022-09-17T01:15:17.404Z,0.00
2022-09-17T01:16:28.253Z,0.00
2022-09-17T01:17:35.886Z,0.00
2022-09-17T01:18:46.844Z,0.00
2022-09-17T01:20:16.241Z,0.00
2022-09-17T01:21:35.237Z,0.00
2022-09-17T01:22:42.290Z,0.00
2022-09-17T01:24:14.237Z,0.07
2022-09-17T01:25:32.267Z,0.00
2022-09-17T01:26:47.339Z,0.00
2022-09-17T01:28:15.302Z,0.00
2022-09-17T01:29:22.870Z,0.03
2022-09-17T01:30:39.483Z,0.00
2022-09-17T01:31:43.934Z,0.00
2022-09-17T01:32:48.977Z,0.00
2022-09-17T01:33:55.798Z,0.00
2022-09-17T01:35:03.099Z,0.00
2022-09-17T01:36:18.232Z,0.00
2022-09-17T01:37:33.227Z,0.00
2022-09-17T01:38:39.135Z,0.00
2022-09-17T01:39:46.431Z,0.00
2022-09-17T01:40:51.330Z,0.00
2022-09-17T01:42:03.319Z,0.00
2022-09-17T01:43:09.690Z,0.00
2022-09-17T01:44:15.247Z,0.00
2022-09-17T01:45:20.327Z,0.00
2022-09-17T01:46:28.818Z,0.00
2022-09-17T01:47:39.268Z,0.10
2022-09-17T01:48:51.249Z,0.00
2022-09-17T01:49:56.149Z,0.00
2022-09-17T01:51:01.301Z,0.17
2022-09-17T01:52:04.090Z,0.00
2022-09-17T01:53:15.270Z,0.00
2022-09-17T01:54:20.228Z,0.00
2022-09-17T01:55:26.117Z,0.00
2022-09-17T01:56:30.424Z,0.00
2022-09-17T01:57:35.215Z,0.00
2022-09-17T01:58:48.247Z,0.00
2022-09-17T01:59:53.070Z,0.00
2022-09-17T02:01:04.529Z,0.00
2022-09-17T02:02:24.310Z,0.00
2022-09-17T02:03:37.297Z,0.00
2022-09-17T02:04:44.018Z,0.00
2022-09-17T02:05:49.404Z,0.07
2022-09-17T02:06:55.316Z,0.00
2022-09-17T02:07:59.558Z,0.00
2022-09-17T02:09:14.917Z,0.10
2022-09-17T02:10:19.249Z,0.00
2022-09-17T02:11:22.812Z,0.00
2022-09-17T02:12:29.837Z,0.00
2022-09-17T02:13:35.844Z,0.00
2022-09-17T02:14:48.282Z,0.00
2022-09-17T02:15:54.414Z,0.00
2022-09-17T02:17:00.273Z,0.03
2022-09-17T02:18:08.530Z,0.00
2022-09-17T02:19:19.281Z,0.00
2022-09-17T02:20:26.700Z,0.00
2022-09-17T02:21:31.409Z,0.00
2022-09-17T02:22:38.967Z,0.00
2022-09-17T02:23:45.505Z,0.00
2022-09-17T02:24:59.273Z,0.00
2022-09-17T02:26:06.579Z,0.00
2022-09-17T02:27:13.439Z,0.00
2022-09-17T02:28:20.152Z,0.00
2022-09-17T02:29:33.283Z,0.00
2022-09-17T02:30:36.794Z,0.00
2022-09-17T02:31:42.518Z,0.00
2022-09-17T02:32:46.507Z,0.10
2022-09-17T02:33:53.056Z,0.00
2022-09-17T02:35:03.280Z,0.00
2022-09-17T02:36:06.185Z,0.00
2022-09-17T02:37:09.990Z,0.00
2022-09-17T02:38:12.629Z,0.23
2022-09-17T02:39:17.617Z,0.00
2022-09-17T02:40:30.369Z,0.00
2022-09-17T02:41:40.966Z,0.00
2022-09-17T02:42:55.253Z,0.00
2022-09-17T02:44:08.284Z,0.00
2022-09-17T02:45:23.268Z,0.00
2022-09-17T02:46:34.361Z,0.00
2022-09-17T02:47:58.859Z,0.00
2022-09-17T02:49:11.257Z,0.00
2022-09-17T02:50:26.342Z,0.00
2022-09-17T02:51:33.792Z,0.00
2022-09-17T02:52:44.014Z,0.00
2022-09-17T02:53:49.396Z,0.00
2022-09-17T02:54:55.030Z,0.00
2022-09-17T02:56:08.327Z,0.00
2022-09-17T02:57:15.353Z,0.00
2022-09-17T02:58:22.110Z,0.00
2022-09-17T02:59:27.256Z,0.00
2022-09-17T03:00:29.861Z,0.10
2022-09-17T03:01:49.282Z,0.00
2022-09-17T03:03:01.117Z,0.10
2022-09-17T03:04:05.608Z,0.00
2022-09-17T03:05:10.346Z,0.00
2022-09-17T03:06:14.479Z,0.00
2022-09-17T03:07:24.294Z,0.00
2022-09-17T03:08:31.100Z,0.00
2022-09-17T03:09:34.177Z,0.00
2022-09-17T03:10:37.753Z,0.00
2022-09-17T03:11:47.292Z,0.00
2022-09-17T03:12:50.962Z,0.00
2022-09-17T03:13:53.485Z,0.00
2022-09-17T03:14:57.204Z,0.00
2022-09-17T03:15:59.793Z,0.00
2022-09-17T03:17:10.277Z,0.10
2022-09-17T03:18:13.755Z,0.00
2022-09-17T03:19:16.275Z,0.00
2022-09-17T03:20:21.068Z,0.00
2022-09-17T03:21:23.670Z,0.00
2022-09-17T03:22:33.288Z,0.00
2022-09-17T03:23:35.823Z,0.00
2022-09-17T03:24:39.338Z,0.00
2022-09-17T03:25:41.884Z,0.00
2022-09-17T03:26:54.298Z,0.00
2022-09-17T03:27:56.853Z,0.00
2022-09-17T03:29:00.355Z,0.00
2022-09-17T03:30:02.934Z,0.00
2022-09-17T03:31:06.865Z,0.13
2022-09-17T03:32:16.294Z,0.00
2022-09-17T03:33:21.173Z,0.00
2022-09-17T03:34:23.939Z,0.00
2022-09-17T03:35:28.718Z,0.00
2022-09-17T03:36:38.295Z,0.00
2022-09-17T03:37:40.868Z,0.00
2022-09-17T03:38:44.320Z,0.00
2022-09-17T03:39:46.907Z,0.00
2022-09-17T03:40:58.746Z,0.00
2022-09-17T03:42:07.328Z,0.00
2022-09-17T03:43:11.184Z,0.00
2022-09-17T03:44:21.300Z,0.00
2022-09-17T03:45:24.787Z,0.00
2022-09-17T03:46:27.445Z,0.00
2022-09-17T03:47:30.914Z,0.00
2022-09-17T03:48:37.071Z,0.00
2022-09-17T03:49:47.322Z,0.00
2022-09-17T03:50:51.192Z,0.00
2022-09-17T03:51:54.659Z,0.00
2022-09-17T03:52:57.183Z,0.00
2022-09-17T03:54:07.330Z,0.00
2022-09-17T03:55:10.007Z,0.10
2022-09-17T03:56:13.567Z,0.00
2022-09-17T03:57:16.989Z,0.00
2022-09-17T03:58:20.436Z,0.00
2022-09-17T03:59:30.314Z,0.00
2022-09-17T04:00:33.829Z,0.00
2022-09-17T04:01:49.468Z,0.00
2022-09-17T04:02:53.125Z,0.17
2022-09-17T04:03:56.035Z,0.10
2022-09-17T04:04:59.595Z,0.00
2022-09-17T04:06:10.315Z,0.00
2022-09-17T04:07:13.775Z,0.00
2022-09-17T04:08:16.341Z,0.00
2022-09-17T04:09:19.878Z,0.00
2022-09-17T04:10:23.483Z,0.00
2022-09-17T04:11:33.303Z,0.00
2022-09-17T04:12:35.947Z,0.00
2022-09-17T04:13:39.518Z,0.00
2022-09-17T04:14:42.154Z,0.00
2022-09-17T04:15:46.193Z,0.00
2022-09-17T04:16:55.331Z,0.30
2022-09-17T04:17:59.001Z,0.00
2022-09-17T04:19:02.278Z,0.00
2022-09-17T04:20:06.269Z,0.00
2022-09-17T04:21:16.322Z,0.00
2022-09-17T04:22:19.911Z,0.00
2022-09-17T04:23:29.320Z,0.00
2022-09-17T04:24:32.804Z,0.00
2022-09-17T04:25:35.418Z,0.00
2022-09-17T04:26:38.855Z,0.00
2022-09-17T04:27:41.716Z,0.13
2022-09-17T04:28:52.332Z,0.10
2022-09-17T04:29:54.948Z,0.00
2022-09-17T04:30:58.770Z,0.00
2022-09-17T04:32:01.299Z,0.00
2022-09-17T04:33:04.895Z,0.10
2022-09-17T04:34:14.327Z,0.00
2022-09-17T04:35:18.020Z,0.10
2022-09-17T04:36:28.320Z,0.00
2022-09-17T04:37:31.883Z,0.00
2022-09-17T04:38:41.324Z,0.00
2022-09-17T04:39:44.814Z,0.00
2022-09-17T04:40:54.342Z,0.00
2022-09-17T04:41:57.768Z,0.00
2022-09-17T04:43:09.333Z,0.00
2022-09-17T04:44:12.802Z,0.00
2022-09-17T04:45:22.328Z,0.00
2022-09-17T04:46:25.911Z,0.00
2022-09-17T04:47:28.489Z,0.00
2022-09-17T04:48:38.315Z,0.00
2022-09-17T04:49:40.866Z,0.00
2022-09-17T04:50:44.446Z,0.00
2022-09-17T04:51:48.300Z,0.00
2022-09-17T04:52:51.771Z,0.00
2022-09-17T04:54:01.333Z,0.03
2022-09-17T04:55:04.898Z,0.00
2022-09-17T04:56:07.439Z,0.00
2022-09-17T04:57:10.893Z,0.00
2022-09-17T04:58:20.310Z,0.30
2022-09-17T04:59:23.842Z,0.00
2022-09-17T05:00:33.396Z,0.10
2022-09-17T05:01:57.404Z,0.00
2022-09-17T05:02:59.942Z,0.13
2022-09-17T05:04:03.638Z,0.00
2022-09-17T05:05:06.240Z,0.23
2022-09-17T05:06:16.405Z,0.10
2022-09-17T05:07:20.347Z,0.00
2022-09-17T05:08:25.315Z,0.00
2022-09-17T05:09:27.912Z,0.00
2022-09-17T05:10:31.421Z,0.10
2022-09-17T05:11:40.383Z,0.20
2022-09-17T05:12:44.087Z,0.00
2022-09-17T05:13:46.665Z,0.00
2022-09-17T05:14:50.635Z,0.00
2022-09-17T05:15:56.776Z,0.00
2022-09-17T05:17:06.336Z,0.00
2022-09-17T05:18:16.319Z,0.00
2022-09-17T05:19:18.874Z,0.10
2022-09-17T05:20:22.929Z,0.10
2022-09-17T05:21:25.537Z,0.00
2022-09-17T05:22:30.387Z,0.10
2022-09-17T05:23:39.402Z,0.00
2022-09-17T05:24:42.887Z,0.20
2022-09-17T05:25:45.490Z,0.00
2022-09-17T05:26:48.969Z,0.10
2022-09-17T05:27:51.900Z,0.10
2022-09-17T05:29:02.345Z,0.27
2022-09-17T05:30:05.159Z,0.20
2022-09-17T05:31:09.055Z,0.67
2022-09-17T05:32:11.618Z,0.43
2022-09-17T05:33:21.364Z,0.10
2022-09-17T05:34:23.978Z,0.03
2022-09-17T05:35:34.346Z,1.03
2022-09-17T05:36:36.862Z,0.20
2022-09-17T05:37:48.358Z,0.00
2022-09-17T05:38:50.884Z,0.13
2022-09-17T05:39:54.397Z,0.37
2022-09-17T05:41:04.361Z,0.20
2022-09-17T05:42:07.130Z,0.10
2022-09-17T05:43:18.541Z,0.50
2022-09-17T05:44:21.140Z,0.40
2022-09-17T05:45:24.598Z,0.50
2022-09-17T05:46:34.381Z,0.03
2022-09-17T05:47:36.986Z,0.30
2022-09-17T05:48:40.476Z,0.33
2022-09-17T05:49:43.101Z,1.20
2022-09-17T05:50:53.347Z,3.57
2022-09-17T05:51:55.877Z,1.70
2022-09-17T05:53:05.380Z,1.30
2022-09-17T05:54:09.238Z,1.03
2022-09-17T05:55:12.708Z,1.73
2022-09-17T05:56:22.428Z,1.20
2022-09-17T05:57:25.953Z,1.17
2022-09-17T05:58:29.178Z,1.13
2022-09-17T05:59:33.360Z,1.00
2022-09-17T06:00:35.872Z,1.40
2022-09-17T06:01:53.398Z,1.00
2022-09-17T06:03:03.420Z,0.80
2022-09-17T06:04:06.977Z,0.90
2022-09-17T06:05:10.140Z,0.57
2022-09-17T06:06:13.654Z,1.10
2022-09-17T06:07:16.244Z,1.23
2022-09-17T06:08:27.369Z,0.57
2022-09-17T06:09:29.901Z,0.30
2022-09-17T06:10:40.394Z,0.77
2022-09-17T06:11:45.033Z,0.97
2022-09-17T06:12:47.797Z,0.60
2022-09-17T06:13:55.040Z,0.77
2022-09-17T06:14:57.879Z,1.07
2022-09-17T06:16:08.397Z,0.67
2022-09-17T06:17:10.991Z,1.03
2022-09-17T06:18:21.398Z,0.33
2022-09-17T06:19:24.141Z,0.97
2022-09-17T06:20:27.861Z,0.80
2022-09-17T06:21:37.468Z,0.63
2022-09-17T06:22:41.002Z,0.70
2022-09-17T06:23:45.164Z,0.57
2022-09-17T06:24:48.740Z,0.40
2022-09-17T06:25:52.922Z,0.27
2022-09-17T06:27:03.404Z,0.53
2022-09-17T06:28:06.232Z,0.30
2022-09-17T06:29:10.022Z,0.47
2022-09-17T06:30:12.866Z,0.57
2022-09-17T06:31:23.518Z,0.30
2022-09-17T06:32:27.312Z,0.30
2022-09-17T06:33:31.082Z,0.27
2022-09-17T06:34:34.665Z,0.20
2022-09-17T06:35:37.350Z,0.20
2022-09-17T06:36:47.407Z,0.30
2022-09-17T06:37:49.991Z,0.37
2022-09-17T06:39:01.370Z,0.03
2022-09-17T06:40:04.756Z,0.30
2022-09-17T06:41:08.411Z,0.20
2022-09-17T06:42:12.558Z,0.10
2022-09-17T06:43:16.259Z,0.40
2022-09-17T06:44:25.485Z,0.27
2022-09-17T06:45:29.181Z,0.53
2022-09-17T06:46:31.867Z,0.30
2022-09-17T06:47:35.883Z,0.20
2022-09-17T06:48:46.397Z,0.53
2022-09-17T06:49:48.930Z,0.03
2022-09-17T06:50:54.395Z,0.20
2022-09-17T06:51:57.050Z,0.30
2022-09-17T06:53:00.572Z,0.50
2022-09-17T06:54:11.492Z,0.50
2022-09-17T06:55:15.650Z,0.50
2022-09-17T06:56:18.490Z,0.40
2022-09-17T06:57:22.151Z,0.30
2022-09-17T06:58:25.051Z,0.43
2022-09-17T06:59:35.389Z,0.23
2022-09-17T07:00:38.014Z,0.67
2022-09-17T07:01:48.482Z,0.40
2022-09-17T07:03:04.570Z,0.40
2022-09-17T07:04:14.633Z,0.70
2022-09-17T07:05:17.258Z,1.93
2022-09-17T07:06:21.300Z,2.53
2022-09-17T07:07:30.411Z,1.53
2022-09-17T07:08:41.472Z,1.67
2022-09-17T07:09:46.281Z,1.80
2022-09-17T07:10:48.852Z,1.70
2022-09-17T07:11:52.311Z,1.40
2022-09-17T07:12:54.820Z,1.47
2022-09-17T07:14:05.392Z,0.97
2022-09-17T07:15:08.481Z,0.80
2022-09-17T07:16:12.483Z,1.10
2022-09-17T07:17:15.167Z,0.50
2022-09-17T07:18:25.415Z,0.57
2022-09-17T07:19:35.412Z,0.83
2022-09-17T07:20:38.689Z,0.70
2022-09-17T07:21:42.194Z,0.80
2022-09-17T07:22:44.971Z,0.83
2022-09-17T07:23:55.439Z,0.67
2022-09-17T07:24:59.354Z,0.83
2022-09-17T07:26:03.505Z,0.70
2022-09-17T07:27:06.276Z,0.80
2022-09-17T07:28:09.878Z,0.70
2022-09-17T07:29:19.419Z,0.80
2022-09-17T07:30:23.127Z,0.60
2022-09-17T07:31:25.861Z,0.50
2022-09-17T07:32:31.195Z,0.67
2022-09-17T07:33:35.345Z,0.60
2022-09-17T07:34:45.397Z,0.43
2022-09-17T07:36:00.407Z,0.30
2022-09-17T07:37:03.979Z,0.80
2022-09-17T07:38:06.548Z,0.47
2022-09-17T07:39:17.415Z,0.47
2022-09-17T07:40:27.466Z,0.57
2022-09-17T07:41:32.150Z,0.30
2022-09-17T07:42:34.957Z,0.77
2022-09-17T07:43:38.438Z,0.30
2022-09-17T07:44:47.411Z,0.87
2022-09-17T07:45:57.560Z,0.20
2022-09-17T07:47:01.214Z,0.40
2022-09-17T07:48:04.167Z,0.23
2022-09-17T07:49:07.935Z,0.50
2022-09-17T07:50:17.472Z,0.43
2022-09-17T07:51:23.421Z,0.50
2022-09-17T07:52:26.311Z,0.60
2022-09-17T07:53:30.330Z,0.30
2022-09-17T07:54:33.561Z,0.10
2022-09-17T07:55:47.540Z,0.67
2022-09-17T07:56:50.506Z,0.40
2022-09-17T07:58:00.409Z,0.50
2022-09-17T07:59:03.402Z,0.27
2022-09-17T08:00:08.257Z,0.40
2022-09-17T08:01:12.356Z,0.30
2022-09-17T08:02:29.553Z,0.10
2022-09-17T08:03:40.995Z,0.53
2022-09-17T08:04:44.164Z,0.60
2022-09-17T08:05:48.437Z,0.10
2022-09-17T08:06:51.170Z,0.23
2022-09-17T08:08:01.569Z,0.20
2022-09-17T08:09:05.299Z,0.57
2022-09-17T08:10:08.287Z,0.10
2022-09-17T08:11:14.480Z,0.33
2022-09-17T08:12:18.379Z,0.07
2022-09-17T08:13:28.592Z,0.20
2022-09-17T08:14:31.206Z,0.10
2022-09-17T08:15:35.014Z,0.40
2022-09-17T08:16:38.083Z,0.20
2022-09-17T08:17:44.771Z,0.10
2022-09-17T08:18:55.446Z,0.10
2022-09-17T08:20:04.650Z,0.10
2022-09-17T08:21:09.601Z,0.20
2022-09-17T08:22:12.294Z,0.20
2022-09-17T08:23:15.680Z,0.17
2022-09-17T08:24:19.094Z,0.40
2022-09-17T08:25:29.389Z,0.10
2022-09-17T08:26:33.346Z,0.10
2022-09-17T08:27:38.753Z,0.50
2022-09-17T08:28:41.374Z,0.00
2022-09-17T08:29:53.374Z,0.20
2022-09-17T08:30:56.357Z,0.40
2022-09-17T08:32:06.388Z,0.23
2022-09-17T08:33:08.865Z,0.40
2022-09-17T08:34:12.529Z,0.30
2022-09-17T08:35:16.410Z,0.40
2022-09-17T08:36:21.224Z,0.20
2022-09-17T08:37:30.397Z,0.10
2022-09-17T08:38:38.054Z,0.20
2022-09-17T08:39:40.878Z,0.27
2022-09-17T08:40:54.270Z,0.03
2022-09-17T08:42:10.446Z,0.00
2022-09-17T08:43:17.297Z,0.10
2022-09-17T08:44:26.172Z,0.10
2022-09-17T08:45:29.471Z,0.10
2022-09-17T08:46:34.503Z,0.30
2022-09-17T08:47:45.545Z,0.40
2022-09-17T08:48:52.903Z,0.00
2022-09-17T08:49:57.076Z,0.30
2022-09-17T08:51:04.308Z,0.10
2022-09-17T08:52:35.397Z,0.67
2022-09-17T08:53:43.534Z,0.10
2022-09-17T08:54:50.122Z,0.03
2022-09-17T08:55:56.031Z,0.00
2022-09-17T08:57:05.370Z,0.13
2022-09-17T08:58:34.635Z,0.10
2022-09-17T08:59:40.935Z,0.20
2022-09-17T09:00:50.267Z,0.20
2022-09-17T09:02:04.666Z,0.10
2022-09-17T09:03:27.476Z,0.20
2022-09-17T09:04:44.400Z,0.30
2022-09-17T09:05:48.921Z,0.00
2022-09-17T09:06:53.483Z,0.10
2022-09-17T09:07:59.889Z,0.00
2022-09-17T09:09:04.077Z,0.30
2022-09-17T09:10:19.501Z,0.00
2022-09-17T09:11:26.269Z,0.20
2022-09-17T09:12:31.941Z,0.13
2022-09-17T09:13:37.167Z,0.30
2022-09-17T09:14:50.435Z,0.20
2022-09-17T09:15:56.473Z,0.10
2022-09-17T09:16:59.226Z,0.00
2022-09-17T09:18:05.041Z,0.10
2022-09-17T09:19:15.906Z,0.10
2022-09-17T09:20:27.454Z,0.00
2022-09-17T09:21:30.832Z,0.00
2022-09-17T09:22:48.357Z,0.03
2022-09-17T09:23:54.273Z,0.10
2022-09-17T09:25:05.540Z,0.00
2022-09-17T09:26:21.468Z,0.20
2022-09-17T09:27:29.283Z,0.00
2022-09-17T09:28:49.708Z,0.10
2022-09-17T09:30:02.153Z,0.77
2022-09-17T09:31:15.503Z,0.20
2022-09-17T09:32:24.569Z,0.30
2022-09-17T09:33:29.553Z,0.17
2022-09-17T09:34:35.411Z,0.30
2022-09-17T09:35:47.491Z,0.10
2022-09-17T09:36:51.153Z,0.10
2022-09-17T09:37:56.702Z,0.10
2022-09-17T09:39:02.245Z,0.00
2022-09-17T09:40:08.888Z,0.40
2022-09-17T09:41:21.501Z,0.00
2022-09-17T09:42:28.163Z,0.20
2022-09-17T09:43:59.917Z,0.00
2022-09-17T09:45:13.860Z,0.00
2022-09-17T09:46:31.567Z,0.03
2022-09-17T09:47:42.842Z,0.00
2022-09-17T09:48:51.715Z,0.10
2022-09-17T09:50:02.845Z,0.07
2022-09-17T09:51:18.484Z,0.10
2022-09-17T09:52:36.490Z,0.00
2022-09-17T09:53:45.347Z,0.07
2022-09-17T09:54:54.020Z,0.00
2022-09-17T09:56:08.045Z,0.00
2022-09-17T09:57:14.477Z,0.10
2022-09-17T09:58:30.460Z,0.07
2022-09-17T09:59:35.969Z,0.10
2022-09-17T10:00:47.494Z,0.27
2022-09-17T10:01:58.041Z,0.17
2022-09-17T10:03:18.491Z,0.10
2022-09-17T10:04:23.861Z,0.13
2022-09-17T10:05:26.561Z,0.10
2022-09-17T10:06:38.481Z,0.13
2022-09-17T10:07:45.645Z,0.10
2022-09-17T10:09:03.959Z,0.23
2022-09-17T10:10:10.699Z,0.00
2022-09-17T10:11:28.468Z,0.20
2022-09-17T10:12:30.955Z,0.10
2022-09-17T10:13:36.270Z,0.60
2022-09-17T10:14:39.461Z,0.00
2022-09-17T10:15:44.342Z,0.10
2022-09-17T10:16:53.487Z,0.10
2022-09-17T10:18:13.342Z,0.10
2022-09-17T10:19:19.964Z,0.10
2022-09-17T10:20:23.764Z,0.20
2022-09-17T10:21:39.529Z,0.20
2022-09-17T10:22:44.244Z,0.10
2022-09-17T10:23:47.009Z,0.00
2022-09-17T10:24:50.866Z,0.00
2022-09-17T10:25:55.772Z,0.10
2022-09-17T10:27:08.765Z,0.10
2022-09-17T10:28:26.408Z,0.30
2022-09-17T10:29:29.070Z,0.20
2022-09-17T10:30:32.690Z,0.23
2022-09-17T10:31:55.594Z,0.00
2022-09-17T10:33:19.943Z,0.30
2022-09-17T10:34:24.497Z,0.00
2022-09-17T10:35:28.163Z,0.00
2022-09-17T10:36:44.635Z,0.10
2022-09-17T10:37:55.479Z,0.00
2022-09-17T10:38:59.008Z,0.00
2022-09-17T10:40:01.614Z,0.20
2022-09-17T10:41:24.889Z,0.07
2022-09-17T10:42:27.432Z,0.00
2022-09-17T10:43:37.482Z,0.00
2022-09-17T10:44:41.770Z,0.10
2022-09-17T10:45:45.473Z,0.00
2022-09-17T10:46:50.383Z,0.00
2022-09-17T10:47:53.427Z,0.10
2022-09-17T10:49:07.530Z,0.10
2022-09-17T10:50:18.112Z,0.00
2022-09-17T10:51:22.858Z,0.10
2022-09-17T10:52:27.571Z,0.20
2022-09-17T10:53:30.561Z,0.00
2022-09-17T10:54:58.720Z,0.00
2022-09-17T10:56:08.235Z,0.00
2022-09-17T10:57:12.971Z,0.00
2022-09-17T10:58:26.299Z,0.10
2022-09-17T10:59:38.832Z,0.13
2022-09-17T11:00:55.522Z,0.10
2022-09-17T11:02:11.741Z,0.13
2022-09-17T11:03:39.810Z,0.20
2022-09-17T11:04:51.720Z,0.33
2022-09-17T11:06:19.505Z,0.10
2022-09-17T11:07:30.523Z,0.30
2022-09-17T11:08:35.571Z,0.83
2022-09-17T11:09:43.693Z,0.40
2022-09-17T11:10:49.704Z,0.17
2022-09-17T11:12:04.530Z,0.20
2022-09-17T11:13:15.673Z,0.00
2022-09-17T11:14:26.803Z,0.10
2022-09-17T11:15:43.409Z,0.33
2022-09-17T11:16:50.501Z,0.63
2022-09-17T11:18:08.552Z,0.63
2022-09-17T11:19:15.582Z,1.20
2022-09-17T11:20:26.173Z,1.27
2022-09-17T11:21:42.454Z,0.40
2022-09-17T11:22:49.821Z,0.73
2022-09-17T11:24:14.522Z,0.23
2022-09-17T11:25:23.988Z,0.67
2022-09-17T11:26:31.546Z,0.60
2022-09-17T11:27:47.790Z,0.50
2022-09-17T11:28:55.121Z,0.50
2022-09-17T11:30:18.595Z,0.57
2022-09-17T11:31:29.110Z,0.50
2022-09-17T11:32:48.775Z,1.30
2022-09-17T11:34:11.061Z,0.63
2022-09-17T11:35:16.303Z,0.23
2022-09-17T11:36:29.575Z,0.70
2022-09-17T11:37:34.301Z,0.10
2022-09-17T11:38:41.110Z,0.33
2022-09-17T11:39:54.618Z,0.20
2022-09-17T11:41:01.461Z,0.90
2022-09-17T11:42:05.130Z,1.13
2022-09-17T11:43:15.901Z,0.30
2022-09-17T11:44:24.209Z,0.30
2022-09-17T11:45:35.548Z,0.13
2022-09-17T11:46:42.892Z,0.10
2022-09-17T11:47:49.129Z,0.47
2022-09-17T11:48:53.954Z,0.33
2022-09-17T11:50:01.420Z,0.47
2022-09-17T11:51:14.524Z,0.17
2022-09-17T11:52:23.054Z,0.43
2022-09-17T11:53:30.859Z,0.57
2022-09-17T11:54:39.482Z,0.30
2022-09-17T11:55:47.278Z,0.13
2022-09-17T11:56:59.531Z,0.10
2022-09-17T11:58:05.580Z,0.23
2022-09-17T11:59:13.610Z,0.40
2022-09-17T12:00:19.014Z,0.00
2022-09-17T12:01:33.634Z,0.00
2022-09-17T12:02:51.782Z,0.20
2022-09-17T12:04:08.522Z,0.23
2022-09-17T12:05:16.261Z,0.30
2022-09-17T12:06:21.800Z,0.47
2022-09-17T12:07:38.510Z,0.23
2022-09-17T12:08:43.724Z,0.20
2022-09-17T12:09:50.364Z,0.50
2022-09-17T12:10:54.332Z,0.60
2022-09-17T12:12:17.854Z,0.53
2022-09-17T12:13:34.502Z,0.30
2022-09-17T12:14:42.710Z,0.20
2022-09-17T12:15:52.327Z,0.27
2022-09-17T12:17:05.530Z,0.23
2022-09-17T12:18:32.625Z,0.10
2022-09-17T12:19:45.562Z,0.20
2022-09-17T12:20:51.762Z,0.20
2022-09-17T12:21:56.779Z,0.20
2022-09-17T12:23:00.932Z,0.10
2022-09-17T12:24:15.564Z,0.23
2022-09-17T12:25:18.149Z,0.10
2022-09-17T12:26:29.733Z,0.10
2022-09-17T12:27:35.969Z,0.10
2022-09-17T12:28:54.562Z,0.00
2022-09-17T12:30:22.451Z,0.00
2022-09-17T12:31:29.566Z,0.20
2022-09-17T12:33:06.566Z,0.03
2022-09-17T12:34:19.623Z,0.20
2022-09-17T12:36:02.434Z,0.30
2022-09-17T12:37:05.312Z,0.30
2022-09-17T12:38:15.304Z,0.13
2022-09-17T12:39:37.183Z,0.20
2022-09-17T12:40:50.539Z,0.30
2022-09-17T12:41:58.849Z,0.30
2022-09-17T12:43:13.805Z,0.20
2022-09-17T12:44:33.588Z,0.00
2022-09-17T12:45:42.133Z,0.37
2022-09-17T12:46:50.612Z,0.00
2022-09-17T12:48:06.800Z,0.90
2022-09-17T12:49:24.431Z,0.00
2022-09-17T12:50:40.661Z,0.10
2022-09-17T12:51:54.038Z,0.10
2022-09-17T12:53:15.567Z,0.10
2022-09-17T12:54:24.036Z,0.00
2022-09-17T12:55:32.246Z,0.33
2022-09-17T12:56:43.025Z,0.00
2022-09-17T12:57:51.636Z,0.10
2022-09-17T12:59:09.652Z,0.83
2022-09-17T13:00:14.613Z,0.30
2022-09-17T13:01:21.038Z,0.20
2022-09-17T13:02:46.541Z,0.10
2022-09-17T13:03:57.763Z,0.20
2022-09-17T13:05:08.729Z,0.00
2022-09-17T13:06:35.570Z,0.00
2022-09-17T13:07:46.208Z,0.00
2022-09-17T13:09:10.703Z,0.17
2022-09-17T13:10:32.733Z,0.10
2022-09-17T13:12:00.616Z,0.40
2022-09-17T13:13:09.682Z,0.00
2022-09-17T13:14:24.531Z,0.10
2022-09-17T13:15:44.009Z,0.20
2022-09-17T13:16:50.949Z,0.10
2022-09-17T13:18:20.338Z,0.10
2022-09-17T13:19:32.501Z,0.00
2022-09-17T13:20:39.444Z,0.10
2022-09-17T13:21:45.694Z,0.00
2022-09-17T13:22:56.582Z,0.80
2022-09-17T13:24:00.675Z,0.20
2022-09-17T13:25:05.971Z,0.00
2022-09-17T13:26:10.487Z,0.00
2022-09-17T13:27:21.620Z,0.00
2022-09-17T13:30:07.745Z,0.10
2022-09-17T13:31:11.862Z,0.20
2022-09-17T13:32:50.810Z,0.00
2022-09-17T13:33:54.839Z,0.13
2022-09-17T13:34:58.359Z,0.33
2022-09-17T13:36:01.052Z,0.00
2022-09-17T13:37:05.018Z,0.10
2022-09-17T13:38:14.573Z,0.00
2022-09-17T13:39:36.630Z,0.17
2022-09-17T13:40:39.290Z,0.20
2022-09-17T13:41:44.464Z,0.00
2022-09-17T13:42:56.614Z,0.10
2022-09-17T13:44:00.704Z,0.43
2022-09-17T13:45:10.005Z,0.20
2022-09-17T13:46:23.799Z,0.00
2022-09-17T13:47:29.211Z,0.87
2022-09-17T13:48:39.573Z,0.87
2022-09-17T13:49:47.513Z,0.90
2022-09-17T13:50:56.569Z,1.17
2022-09-17T13:52:00.092Z,0.73
2022-09-17T13:53:08.696Z,1.10
2022-09-17T13:54:12.080Z,0.40
2022-09-17T13:55:36.601Z,1.07
2022-09-17T13:56:41.411Z,1.07
2022-09-17T13:57:51.470Z,0.60
2022-09-17T13:58:54.245Z,0.40
2022-09-17T14:00:01.080Z,0.43
2022-09-17T14:01:10.809Z,0.23
2022-09-17T14:02:44.780Z,1.30
2022-09-17T14:03:57.084Z,0.57
2022-09-17T14:05:20.569Z,0.10
2022-09-17T14:06:50.671Z,0.40
2022-09-17T14:07:56.094Z,0.27
2022-09-17T14:09:06.544Z,0.30
2022-09-17T14:10:25.883Z,0.57
2022-09-17T14:11:39.272Z,0.13
2022-09-17T14:13:02.665Z,0.20
2022-09-17T14:14:21.161Z,0.60
2022-09-17T14:15:39.619Z,0.20
2022-09-17T14:16:50.458Z,1.07
2022-09-17T14:17:54.200Z,0.57
2022-09-17T14:19:07.018Z,0.20
2022-09-17T14:20:09.810Z,0.60
2022-09-17T14:21:24.697Z,0.37
2022-09-17T14:22:28.491Z,0.40
2022-09-17T14:23:37.556Z,0.30
2022-09-17T14:24:53.662Z,0.10
2022-09-17T14:25:56.985Z,0.37
2022-09-17T14:27:18.998Z,0.10
2022-09-17T14:28:27.693Z,0.17
2022-09-17T14:30:04.669Z,0.07
2022-09-17T14:31:12.225Z,0.57
2022-09-17T14:32:16.526Z,0.27
2022-09-17T14:33:21.266Z,0.63
2022-09-17T14:34:26.150Z,0.43
2022-09-17T14:35:40.779Z,0.53
2022-09-17T14:36:43.545Z,0.73
2022-09-17T14:37:48.872Z,0.40
2022-09-17T14:39:01.538Z,0.17
2022-09-17T14:40:09.582Z,0.50
2022-09-17T14:41:27.699Z,0.23
2022-09-17T14:42:34.778Z,0.30
2022-09-17T14:43:42.378Z,0.60
2022-09-17T14:44:55.381Z,0.60
2022-09-17T14:45:58.951Z,1.00
2022-09-17T14:47:10.649Z,0.10
2022-09-17T14:48:34.892Z,0.20
2022-09-17T14:49:38.463Z,0.77
2022-09-17T14:50:42.181Z,0.27
2022-09-17T14:51:51.609Z,0.10
2022-09-17T14:52:55.902Z,0.40
2022-09-17T14:54:10.715Z,0.13
2022-09-17T14:55:18.984Z,0.60
2022-09-17T14:56:23.152Z,0.40
2022-09-17T14:57:34.589Z,0.47
2022-09-17T14:58:38.944Z,0.30
2022-09-17T14:59:48.872Z,0.40
2022-09-17T15:00:52.195Z,0.57
2022-09-17T15:01:56.107Z,0.77
2022-09-17T15:03:14.763Z,0.77
2022-09-17T15:04:25.542Z,0.20
2022-09-17T15:05:31.988Z,0.00
2022-09-17T15:06:34.717Z,0.40
2022-09-17T15:07:45.382Z,0.43
2022-09-17T15:08:49.205Z,0.30
2022-09-17T15:09:55.212Z,0.00
2022-09-17T15:11:01.144Z,0.80
2022-09-17T15:12:04.926Z,0.50